Private Wetterstation Sandau
Wetterdaten: Dienstag, 31.01.2012
Datum Zeit Temp. A. Feuchte A. Luftdruck Regen Wind Richtung Richtung Taupunkt Windchill
31.01.2012 00:02 -7,1 C 73 % 1034,1 hPa 0,0 l/m 9,7 km/h (2 Bft) O 90 -11,1 C -11,7 C
31.01.2012 00:07 -7,2 C 73 % 1034,2 hPa 0,0 l/m 16,9 km/h (3 Bft) O 90 -11,2 C -13,7 C
31.01.2012 00:12 -7,2 C 73 % 1034,1 hPa 0,0 l/m 11,2 km/h (2 Bft) O 90 -11,2 C -12,3 C
31.01.2012 00:17 -7,2 C 73 % 1034,1 hPa 0,0 l/m 7,9 km/h (2 Bft) O 90 -11,2 C -11,2 C
31.01.2012 00:22 -7,3 C 73 % 1034,1 hPa 0,0 l/m 7,2 km/h (2 Bft) O 90 -11,3 C -11,0 C
31.01.2012 00:27 -7,3 C 73 % 1034,2 hPa 0,0 l/m 6,8 km/h (2 Bft) O 90 -11,3 C -10,8 C
31.01.2012 00:32 -7,3 C 73 % 1034,2 hPa 0,0 l/m 16,9 km/h (3 Bft) O 90 -11,3 C -13,8 C
31.01.2012 00:37 -7,3 C 73 % 1034,3 hPa 0,0 l/m 16,9 km/h (3 Bft) O 90 -11,3 C -13,8 C
31.01.2012 00:42 -7,4 C 74 % 1034,3 hPa 0,0 l/m 11,2 km/h (2 Bft) O 90 -11,2 C -12,5 C
31.01.2012 00:47 -7,4 C 74 % 1034,3 hPa 0,0 l/m 18,7 km/h (3 Bft) O 90 -11,2 C -14,3 C
31.01.2012 00:52 -7,4 C 74 % 1034,3 hPa 0,0 l/m 13,7 km/h (3 Bft) O 90 -11,2 C -13,2 C
31.01.2012 00:57 -7,4 C 74 % 1034,3 hPa 0,0 l/m 9,7 km/h (2 Bft) O 90 -11,2 C -12,1 C
31.01.2012 01:02 -7,5 C 74 % 1034,1 hPa 0,0 l/m 14,8 km/h (3 Bft) O 90 -11,3 C -13,6 C
31.01.2012 01:07 -7,5 C 74 % 1034,1 hPa 0,0 l/m 10,8 km/h (2 Bft) O 90 -11,3 C -12,5 C
31.01.2012 01:12 -7,5 C 74 % 1034,1 hPa 0,0 l/m 8,6 km/h (2 Bft) O 90 -11,3 C -11,8 C
31.01.2012 01:17 -7,5 C 74 % 1034,1 hPa 0,0 l/m 6,8 km/h (2 Bft) O 90 -11,3 C -11,0 C
31.01.2012 01:22 -7,6 C 74 % 1034,0 hPa 0,0 l/m 5,4 km/h (1 Bft) O 90 -11,4 C -10,4 C
31.01.2012 01:27 -7,6 C 74 % 1034,1 hPa 0,0 l/m 5,8 km/h (2 Bft) O 90 -11,4 C -10,7 C
31.01.2012 01:32 -7,6 C 74 % 1034,1 hPa 0,0 l/m 19,8 km/h (3 Bft) O 90 -11,4 C -14,8 C
31.01.2012 01:37 -7,6 C 75 % 1034,0 hPa 0,0 l/m 10,4 km/h (2 Bft) O 90 -11,2 C -12,5 C
31.01.2012 01:42 -7,6 C 75 % 1034,0 hPa 0,0 l/m 18,7 km/h (3 Bft) O 90 -11,2 C -14,6 C
31.01.2012 01:47 -7,6 C 75 % 1034,0 hPa 0,0 l/m 10,4 km/h (2 Bft) O 90 -11,2 C -12,5 C
31.01.2012 01:52 -7,6 C 75 % 1034,0 hPa 0,0 l/m 14,0 km/h (3 Bft) O 90 -11,2 C -13,5 C
31.01.2012 01:57 -7,6 C 75 % 1033,8 hPa 0,0 l/m 12,6 km/h (3 Bft) O 90 -11,2 C -13,2 C
31.01.2012 02:02 -7,6 C 75 % 1033,9 hPa 0,0 l/m 19,8 km/h (3 Bft) O 90 -11,2 C -14,8 C
31.01.2012 02:07 -7,6 C 75 % 1033,9 hPa 0,0 l/m 15,5 km/h (3 Bft) O 90 -11,2 C -13,9 C
31.01.2012 02:12 -7,7 C 75 % 1033,8 hPa 0,0 l/m 17,6 km/h (3 Bft) O 90 -11,3 C -14,5 C
31.01.2012 02:17 -7,7 C 75 % 1034,0 hPa 0,0 l/m 13,3 km/h (3 Bft) O 90 -11,3 C -13,5 C
31.01.2012 02:22 -7,7 C 75 % 1034,0 hPa 0,0 l/m 13,3 km/h (3 Bft) O 90 -11,3 C -13,5 C
31.01.2012 02:27 -7,8 C 75 % 1034,0 hPa 0,0 l/m 20,9 km/h (4 Bft) O 90 -11,4 C -15,2 C
31.01.2012 02:32 -7,8 C 75 % 1033,8 hPa 0,0 l/m 10,1 km/h (2 Bft) O 90 -11,4 C -12,7 C
31.01.2012 02:37 -7,8 C 75 % 1033,9 hPa 0,0 l/m 12,6 km/h (3 Bft) O 90 -11,4 C -13,4 C
31.01.2012 02:42 -7,9 C 75 % 1034,0 hPa 0,0 l/m 6,1 km/h (2 Bft) O 90 -11,5 C -11,2 C
31.01.2012 02:47 -7,9 C 75 % 1033,8 hPa 0,0 l/m 9,0 km/h (2 Bft) O 90 -11,5 C -12,4 C
31.01.2012 02:52 -7,9 C 76 % 1033,8 hPa 0,0 l/m 23,4 km/h (4 Bft) O 90 -11,4 C -15,8 C
31.01.2012 02:57 -8,0 C 76 % 1033,8 hPa 0,0 l/m 9,4 km/h (2 Bft) O 90 -11,5 C -12,7 C
31.01.2012 03:02 -8,1 C 76 % 1033,8 hPa 0,0 l/m 11,5 km/h (2 Bft) O 90 -11,6 C -13,5 C
31.01.2012 03:07 -8,1 C 76 % 1033,7 hPa 0,0 l/m 15,5 km/h (3 Bft) O 90 -11,6 C -14,5 C
31.01.2012 03:12 -8,1 C 76 % 1033,9 hPa 0,0 l/m 14,8 km/h (3 Bft) O 90 -11,6 C -14,4 C
31.01.2012 03:17 -8,1 C 76 % 1033,9 hPa 0,0 l/m 11,2 km/h (2 Bft) O 90 -11,6 C -13,4 C
31.01.2012 03:22 -8,1 C 76 % 1033,9 hPa 0,0 l/m 15,8 km/h (3 Bft) O 90 -11,6 C -14,6 C
31.01.2012 03:27 -8,2 C 76 % 1033,8 hPa 0,0 l/m 12,6 km/h (3 Bft) O 90 -11,7 C -13,9 C
31.01.2012 03:32 -8,2 C 76 % 1033,9 hPa 0,0 l/m 24,8 km/h (4 Bft) O 90 -11,7 C -16,4 C
31.01.2012 03:37 -8,2 C 76 % 1033,8 hPa 0,0 l/m 12,2 km/h (2 Bft) O 90 -11,7 C -13,8 C
31.01.2012 03:42 -8,2 C 77 % 1033,8 hPa 0,0 l/m 12,6 km/h (3 Bft) O 90 -11,5 C -13,9 C
31.01.2012 03:47 -8,2 C 77 % 1033,7 hPa 0,0 l/m 14,8 km/h (3 Bft) O 90 -11,5 C -14,5 C
31.01.2012 03:52 -8,4 C 77 % 1034,0 hPa 0,0 l/m 19,1 km/h (3 Bft) O 90 -11,7 C -15,7 C
31.01.2012 03:57 -8,4 C 77 % 1034,0 hPa 0,0 l/m 8,6 km/h (2 Bft) O 90 -11,7 C -12,8 C
31.01.2012 04:02 -8,4 C 77 % 1034,0 hPa 0,0 l/m 7,6 km/h (2 Bft) O 90 -11,7 C -12,4 C
31.01.2012 04:07 -8,4 C 77 % 1034,0 hPa 0,0 l/m 10,8 km/h (2 Bft) O 90 -11,7 C -13,6 C
31.01.2012 04:12 -8,4 C 77 % 1034,1 hPa 0,0 l/m 7,6 km/h (2 Bft) O 90 -11,7 C -12,4 C
31.01.2012 04:17 -8,4 C 77 % 1034,1 hPa 0,0 l/m 6,8 km/h (2 Bft) O 90 -11,7 C -12,1 C
31.01.2012 04:22 -8,5 C 77 % 1034,0 hPa 0,0 l/m 13,7 km/h (3 Bft) O 90 -11,8 C -14,6 C
31.01.2012 04:27 -8,5 C 77 % 1034,0 hPa 0,0 l/m 11,9 km/h (2 Bft) O 90 -11,8 C -14,1 C
31.01.2012 04:32 -8,5 C 77 % 1034,0 hPa 0,0 l/m 18,0 km/h (3 Bft) O 90 -11,8 C -15,6 C
31.01.2012 04:37 -8,6 C 77 % 1034,0 hPa 0,0 l/m 18,4 km/h (3 Bft) O 90 -11,9 C -15,8 C
31.01.2012 04:42 -8,6 C 77 % 1033,9 hPa 0,0 l/m 9,0 km/h (2 Bft) O 90 -11,9 C -13,2 C
31.01.2012 04:47 -8,6 C 77 % 1034,0 hPa 0,0 l/m 12,2 km/h (2 Bft) O 90 -11,9 C -14,3 C
31.01.2012 04:52 -8,7 C 77 % 1033,9 hPa 0,0 l/m 8,6 km/h (2 Bft) O 90 -12,0 C -13,2 C
31.01.2012 04:57 -8,7 C 77 % 1033,8 hPa 0,0 l/m 14,8 km/h (3 Bft) O 90 -12,0 C -15,1 C
31.01.2012 05:02 -8,7 C 77 % 1033,6 hPa 0,0 l/m 15,5 km/h (3 Bft) O 90 -12,0 C -15,3 C
31.01.2012 05:07 -8,7 C 77 % 1034,0 hPa 0,0 l/m 15,8 km/h (3 Bft) O 90 -12,0 C -15,3 C
31.01.2012 05:12 -8,8 C 77 % 1033,9 hPa 0,0 l/m 10,1 km/h (2 Bft) O 90 -12,1 C -13,9 C
31.01.2012 05:17 -8,8 C 77 % 1033,7 hPa 0,0 l/m 14,4 km/h (3 Bft) O 90 -12,1 C -15,1 C
31.01.2012 05:22 -8,9 C 77 % 1033,8 hPa 0,0 l/m 5,0 km/h (1 Bft) O 90 -12,2 C -11,7 C
31.01.2012 05:27 -8,9 C 77 % 1033,7 hPa 0,0 l/m 13,3 km/h (3 Bft) O 90 -12,2 C -15,0 C
31.01.2012 05:32 -8,9 C 77 % 1033,8 hPa 0,0 l/m 21,6 km/h (4 Bft) O 90 -12,2 C -16,8 C
31.01.2012 05:37 -9,0 C 77 % 1033,8 hPa 0,0 l/m 13,0 km/h (3 Bft) O 90 -12,3 C -15,0 C
31.01.2012 05:42 -9,0 C 78 % 1033,8 hPa 0,0 l/m 14,8 km/h (3 Bft) O 90 -12,1 C -15,5 C
31.01.2012 05:47 -9,0 C 78 % 1033,8 hPa 0,0 l/m 12,6 km/h (3 Bft) O 90 -12,1 C -14,9 C
31.01.2012 05:52 -9,1 C 78 % 1033,9 hPa 0,0 l/m 16,6 km/h (3 Bft) O 90 -12,2 C -16,0 C
31.01.2012 05:57 -9,1 C 78 % 1033,8 hPa 0,0 l/m 15,1 km/h (3 Bft) O 90 -12,2 C -15,7 C
31.01.2012 06:02 -9,1 C 78 % 1033,9 hPa 0,0 l/m 16,9 km/h (3 Bft) O 90 -12,2 C -16,1 C
31.01.2012 06:07 -9,1 C 78 % 1033,7 hPa 0,0 l/m 14,0 km/h (3 Bft) O 90 -12,2 C -15,4 C
31.01.2012 06:12 -9,2 C 78 % 1033,8 hPa 0,0 l/m 26,3 km/h (4 Bft) O 90 -12,3 C -17,9 C
31.01.2012 06:17 -9,2 C 78 % 1033,8 hPa 0,0 l/m 10,1 km/h (2 Bft) O 90 -12,3 C -14,3 C
31.01.2012 06:22 -9,2 C 78 % 1033,8 hPa 0,0 l/m 7,9 km/h (2 Bft) O 90 -12,3 C -13,5 C
31.01.2012 06:27 -9,2 C 78 % 1033,8 hPa 0,0 l/m 10,4 km/h (2 Bft) O 90 -12,3 C -14,4 C
31.01.2012 06:32 -9,3 C 78 % 1033,6 hPa 0,0 l/m 13,7 km/h (3 Bft) O 90 -12,4 C -15,5 C
31.01.2012 06:37 -9,3 C 78 % 1033,7 hPa 0,0 l/m 20,9 km/h (4 Bft) O 90 -12,4 C -17,1 C
31.01.2012 06:42 -9,3 C 78 % 1033,8 hPa 0,0 l/m 13,0 km/h (3 Bft) O 90 -12,4 C -15,4 C
31.01.2012 06:47 -9,3 C 78 % 1033,8 hPa 0,0 l/m 18,0 km/h (3 Bft) O 90 -12,4 C -16,6 C
31.01.2012 06:52 -9,4 C 78 % 1033,8 hPa 0,0 l/m 24,1 km/h (4 Bft) O 90 -12,5 C -17,8 C
31.01.2012 06:57 -9,4 C 78 % 1033,9 hPa 0,0 l/m 10,1 km/h (2 Bft) O 90 -12,5 C -14,6 C
31.01.2012 07:02 -9,4 C 78 % 1033,8 hPa 0,0 l/m 8,6 km/h (2 Bft) O 90 -12,5 C -14,0 C
31.01.2012 07:07 -9,4 C 78 % 1033,9 hPa 0,0 l/m 11,2 km/h (2 Bft) O 90 -12,5 C -14,9 C
31.01.2012 07:12 -9,5 C 78 % 1033,8 hPa 0,0 l/m 10,1 km/h (2 Bft) O 90 -12,6 C -14,7 C
31.01.2012 07:17 -9,5 C 78 % 1034,0 hPa 0,0 l/m 10,1 km/h (2 Bft) O 90 -12,6 C -14,7 C
31.01.2012 07:22 -9,6 C 78 % 1034,1 hPa 0,0 l/m 17,6 km/h (3 Bft) O 90 -12,7 C -16,9 C
31.01.2012 07:27 -9,6 C 78 % 1034,1 hPa 0,0 l/m 9,7 km/h (2 Bft) O 90 -12,7 C -14,7 C
31.01.2012 07:32 -9,6 C 78 % 1034,1 hPa 0,0 l/m 9,0 km/h (2 Bft) O 90 -12,7 C -14,4 C
31.01.2012 07:37 -9,6 C 78 % 1034,1 hPa 0,0 l/m 14,8 km/h (3 Bft) O 90 -12,7 C -16,2 C
31.01.2012 07:42 -9,6 C 79 % 1034,2 hPa 0,0 l/m 18,0 km/h (3 Bft) O 90 -12,5 C -16,9 C
31.01.2012 07:47 -9,7 C 79 % 1034,3 hPa 0,0 l/m 11,5 km/h (2 Bft) O 90 -12,6 C -15,4 C
31.01.2012 07:52 -9,7 C 78 % 1034,1 hPa 0,0 l/m 14,4 km/h (3 Bft) O 90 -12,8 C -16,2 C
31.01.2012 07:57 -9,7 C 78 % 1034,2 hPa 0,0 l/m 10,1 km/h (2 Bft) O 90 -12,8 C -14,9 C
31.01.2012 08:02 -9,8 C 79 % 1034,2 hPa 0,0 l/m 14,0 km/h (3 Bft) O 90 -12,7 C -16,2 C
31.01.2012 08:07 -9,8 C 79 % 1034,3 hPa 0,0 l/m 8,6 km/h (2 Bft) O 90 -12,7 C -14,5 C
31.01.2012 08:12 -9,9 C 78 % 1034,2 hPa 0,0 l/m 13,7 km/h (3 Bft) O 90 -13,0 C -16,3 C
31.01.2012 08:17 -9,9 C 78 % 1034,5 hPa 0,0 l/m 16,6 km/h (3 Bft) O 90 -13,0 C -17,0 C
31.01.2012 08:22 -9,9 C 78 % 1034,5 hPa 0,0 l/m 19,1 km/h (3 Bft) O 90 -13,0 C -17,6 C
31.01.2012 08:27 -9,9 C 78 % 1034,5 hPa 0,0 l/m 6,1 km/h (2 Bft) O 90 -13,0 C -13,5 C
31.01.2012 08:32 -9,9 C 78 % 1034,6 hPa 0,0 l/m 19,1 km/h (3 Bft) O 90 -13,0 C -17,6 C
31.01.2012 08:37 -9,9 C 78 % 1034,4 hPa 0,0 l/m 7,2 km/h (2 Bft) O 90 -13,0 C -14,0 C
31.01.2012 08:42 -9,9 C 78 % 1034,6 hPa 0,0 l/m 9,0 km/h (2 Bft) O 90 -13,0 C -14,8 C
31.01.2012 08:47 -9,9 C 78 % 1034,6 hPa 0,0 l/m 19,8 km/h (3 Bft) O 90 -13,0 C -17,7 C
31.01.2012 08:52 -9,9 C 78 % 1034,7 hPa 0,0 l/m 18,4 km/h (3 Bft) O 90 -13,0 C -17,4 C
31.01.2012 08:57 -9,9 C 78 % 1034,6 hPa 0,0 l/m 15,1 km/h (3 Bft) O 90 -13,0 C -16,6 C
31.01.2012 09:02 -9,9 C 78 % 1034,5 hPa 0,0 l/m 8,6 km/h (2 Bft) O 90 -13,0 C -14,6 C
31.01.2012 09:07 -9,9 C 78 % 1034,7 hPa 0,0 l/m 9,7 km/h (2 Bft) O 90 -13,0 C -15,0 C
31.01.2012 09:12 -9,9 C 78 % 1034,7 hPa 0,0 l/m 14,4 km/h (3 Bft) O 90 -13,0 C -16,5 C
31.01.2012 09:17 -9,9 C 78 % 1034,6 hPa 0,0 l/m 17,6 km/h (3 Bft) O 90 -13,0 C -17,2 C
31.01.2012 09:22 -9,9 C 78 % 1034,7 hPa 0,0 l/m 13,0 km/h (3 Bft) O 90 -13,0 C -16,1 C
31.01.2012 09:27 -9,8 C 78 % 1034,7 hPa 0,0 l/m 10,1 km/h (2 Bft) O 90 -12,9 C -15,1 C
31.01.2012 09:32 -9,8 C 78 % 1034,7 hPa 0,0 l/m 24,8 km/h (4 Bft) O 90 -12,9 C -18,5 C
31.01.2012 09:37 -9,7 C 77 % 1034,7 hPa 0,0 l/m 16,9 km/h (3 Bft) O 90 -13,0 C -16,8 C
31.01.2012 09:42 -9,6 C 77 % 1034,5 hPa 0,0 l/m 20,9 km/h (4 Bft) O 90 -12,9 C -17,5 C
31.01.2012 09:47 -9,6 C 77 % 1034,5 hPa 0,0 l/m 12,6 km/h (3 Bft) O 90 -12,9 C -15,6 C
31.01.2012 09:52 -9,6 C 77 % 1034,5 hPa 0,0 l/m 12,2 km/h (2 Bft) O 90 -12,9 C -15,5 C
31.01.2012 09:57 -9,6 C 77 % 1034,5 hPa 0,0 l/m 14,0 km/h (3 Bft) O 90 -12,9 C -16,0 C
31.01.2012 10:02 -9,4 C 77 % 1034,8 hPa 0,0 l/m 20,9 km/h (4 Bft) O 90 -12,7 C -17,3 C
31.01.2012 10:07 -9,4 C 76 % 1034,7 hPa 0,0 l/m 18,0 km/h (3 Bft) O 90 -12,8 C -16,7 C
31.01.2012 10:12 -9,4 C 76 % 1034,8 hPa 0,0 l/m 11,5 km/h (2 Bft) O 90 -12,8 C -15,0 C
31.01.2012 10:17 -9,3 C 76 % 1034,7 hPa 0,0 l/m 26,6 km/h (4 Bft) O 90 -12,7 C -18,1 C
31.01.2012 10:22 -9,3 C 76 % 1034,8 hPa 0,0 l/m 20,2 km/h (4 Bft) O 90 -12,7 C -17,0 C
31.01.2012 10:27 -9,2 C 76 % 1034,8 hPa 0,0 l/m 10,4 km/h (2 Bft) O 90 -12,6 C -14,4 C
31.01.2012 10:32 -9,1 C 76 % 1034,8 hPa 0,0 l/m 14,4 km/h (3 Bft) O 90 -12,5 C -15,5 C
31.01.2012 10:37 -9,1 C 76 % 1034,9 hPa 0,0 l/m 23,0 km/h (4 Bft) O 90 -12,5 C -17,3 C
31.01.2012 10:42 -9,1 C 75 % 1034,8 hPa 0,0 l/m 9,7 km/h (2 Bft) O 90 -12,7 C -14,1 C
31.01.2012 10:47 -9,1 C 75 % 1034,8 hPa 0,0 l/m 11,2 km/h (2 Bft) O 90 -12,7 C -14,6 C
31.01.2012 10:52 -8,9 C 75 % 1034,8 hPa 0,0 l/m 11,9 km/h (2 Bft) O 90 -12,5 C -14,6 C
31.01.2012 10:57 -8,9 C 75 % 1035,0 hPa 0,0 l/m 25,2 km/h (4 Bft) O 90 -12,5 C -17,4 C
31.01.2012 11:02 -8,8 C 75 % 1034,8 hPa 0,0 l/m 9,4 km/h (2 Bft) O 90 -12,4 C -13,6 C
31.01.2012 11:07 -8,7 C 75 % 1034,9 hPa 0,0 l/m 15,8 km/h (3 Bft) O 90 -12,3 C -15,3 C
31.01.2012 11:12 -8,7 C 75 % 1035,0 hPa 0,0 l/m 12,6 km/h (3 Bft) O 90 -12,3 C -14,5 C
31.01.2012 11:17 -8,6 C 74 % 1035,1 hPa 0,0 l/m 8,3 km/h (2 Bft) O 90 -12,4 C -13,0 C
31.01.2012 11:22 -8,6 C 74 % 1035,0 hPa 0,0 l/m 12,2 km/h (2 Bft) O 90 -12,4 C -14,3 C
31.01.2012 11:27 -8,5 C 74 % 1035,1 hPa 0,0 l/m 9,7 km/h (2 Bft) O 90 -12,3 C -13,4 C
31.01.2012 11:32 -8,4 C 74 % 1035,0 hPa 0,0 l/m 11,5 km/h (2 Bft) O 90 -12,2 C -13,8 C
31.01.2012 11:37 -8,4 C 74 % 1035,0 hPa 0,0 l/m 7,6 km/h (2 Bft) O 90 -12,2 C -12,4 C
31.01.2012 11:42 -8,3 C 74 % 1035,1 hPa 0,0 l/m 5,0 km/h (1 Bft) O 90 -12,1 C -11,0 C
31.01.2012 11:47 -8,2 C 74 % 1034,9 hPa 0,0 l/m 14,0 km/h (3 Bft) O 90 -12,0 C -14,3 C
31.01.2012 11:52 -8,2 C 73 % 1035,0 hPa 0,0 l/m 9,4 km/h (2 Bft) O 90 -12,2 C -12,9 C
31.01.2012 11:57 -8,1 C 73 % 1034,9 hPa 0,0 l/m 8,6 km/h (2 Bft) O 90 -12,1 C -12,5 C
31.01.2012 12:02 -8,0 C 73 % 1034,8 hPa 0,0 l/m 11,9 km/h (2 Bft) O 90 -12,0 C -13,5 C
31.01.2012 12:07 -7,9 C 72 % 1034,9 hPa 0,0 l/m 7,9 km/h (2 Bft) O 90 -12,0 C -12,0 C
31.01.2012 12:12 -7,9 C 72 % 1035,0 hPa 0,0 l/m 16,9 km/h (3 Bft) O 90 -12,0 C -14,6 C
31.01.2012 12:17 -7,9 C 72 % 1034,8 hPa 0,0 l/m 19,8 km/h (3 Bft) O 90 -12,0 C -15,2 C
31.01.2012 12:22 -7,8 C 72 % 1034,8 hPa 0,0 l/m 14,8 km/h (3 Bft) O 90 -11,9 C -14,0 C
31.01.2012 12:27 -7,7 C 72 % 1034,8 hPa 0,0 l/m 26,6 km/h (4 Bft) O 90 -11,8 C -16,0 C
31.01.2012 12:32 -7,6 C 72 % 1034,6 hPa 0,0 l/m 7,6 km/h (2 Bft) O 90 -11,8 C -11,5 C
31.01.2012 12:37 -7,6 C 72 % 1034,8 hPa 0,0 l/m 10,8 km/h (2 Bft) O 90 -11,8 C -12,7 C
31.01.2012 12:42 -7,5 C 71 % 1034,8 hPa 0,0 l/m 11,2 km/h (2 Bft) O 90 -11,8 C -12,7 C
31.01.2012 12:47 -7,4 C 71 % 1034,8 hPa 0,0 l/m 10,1 km/h (2 Bft) O 90 -11,7 C -12,2 C
31.01.2012 12:52 -7,4 C 70 % 1034,7 hPa 0,0 l/m 13,7 km/h (3 Bft) O 90 -11,9 C -13,2 C
31.01.2012 12:57 -7,3 C 71 % 1034,7 hPa 0,0 l/m 16,9 km/h (3 Bft) O 90 -11,6 C -13,8 C
31.01.2012 13:02 -7,2 C 70 % 1034,7 hPa 0,0 l/m 14,0 km/h (3 Bft) O 90 -11,7 C -13,1 C
31.01.2012 13:07 -7,2 C 70 % 1034,8 hPa 0,0 l/m 10,1 km/h (2 Bft) O 90 -11,7 C -11,9 C
31.01.2012 13:12 -7,1 C 70 % 1034,6 hPa 0,0 l/m 15,1 km/h (3 Bft) O 90 -11,6 C -13,2 C
31.01.2012 13:17 -7,1 C 70 % 1034,7 hPa 0,0 l/m 14,8 km/h (3 Bft) O 90 -11,6 C -13,1 C
31.01.2012 13:22 -7,0 C 70 % 1034,8 hPa 0,0 l/m 19,1 km/h (3 Bft) O 90 -11,5 C -13,9 C
31.01.2012 13:27 -6,9 C 69 % 1034,6 hPa 0,0 l/m 20,9 km/h (4 Bft) O 90 -11,6 C -14,1 C
31.01.2012 13:32 -6,9 C 69 % 1034,6 hPa 0,0 l/m 8,6 km/h (2 Bft) O 90 -11,6 C -11,1 C
31.01.2012 13:37 -6,8 C 69 % 1034,6 hPa 0,0 l/m 5,8 km/h (2 Bft) O 90 -11,5 C -9,7 C
31.01.2012 13:42 -6,6 C 69 % 1034,4 hPa 0,0 l/m 11,5 km/h (2 Bft) O 90 -11,3 C -11,7 C
31.01.2012 13:47 -6,5 C 69 % 1034,4 hPa 0,0 l/m 20,5 km/h (4 Bft) O 90 -11,2 C -13,5 C
31.01.2012 13:52 -6,6 C 68 % 1034,4 hPa 0,0 l/m 9,7 km/h (2 Bft) O 90 -11,5 C -11,1 C
31.01.2012 13:57 -6,6 C 68 % 1034,3 hPa 0,0 l/m 13,0 km/h (3 Bft) O 90 -11,5 C -12,1 C
31.01.2012 14:02 -6,5 C 68 % 1034,4 hPa 0,0 l/m 14,0 km/h (3 Bft) O 90 -11,4 C -12,2 C
31.01.2012 14:07 -6,4 C 68 % 1034,3 hPa 0,0 l/m 11,5 km/h (2 Bft) O 90 -11,3 C -11,4 C
31.01.2012 14:12 -6,4 C 68 % 1034,4 hPa 0,0 l/m 17,3 km/h (3 Bft) O 90 -11,3 C -12,8 C
31.01.2012 14:17 -6,4 C 67 % 1034,2 hPa 0,0 l/m 13,7 km/h (3 Bft) O 90 -11,5 C -12,0 C
31.01.2012 14:22 -6,4 C 67 % 1034,3 hPa 0,0 l/m 9,4 km/h (2 Bft) O 90 -11,5 C -10,8 C
31.01.2012 14:27 -6,4 C 67 % 1034,4 hPa 0,0 l/m 14,4 km/h (3 Bft) O 90 -11,5 C -12,2 C
31.01.2012 14:32 -6,4 C 67 % 1034,5 hPa 0,0 l/m 5,0 km/h (1 Bft) O 90 -11,5 C -8,8 C
31.01.2012 14:37 -6,3 C 67 % 1034,4 hPa 0,0 l/m 13,7 km/h (3 Bft) O 90 -11,4 C -11,9 C
31.01.2012 14:42 -6,4 C 67 % 1034,4 hPa 0,0 l/m 12,6 km/h (3 Bft) O 90 -11,5 C -11,7 C
31.01.2012 14:47 -6,4 C 67 % 1034,4 hPa 0,0 l/m 16,6 km/h (3 Bft) O 90 -11,5 C -12,7 C
31.01.2012 14:52 -6,4 C 67 % 1034,4 hPa 0,0 l/m 11,5 km/h (2 Bft) O 90 -11,5 C -11,4 C
31.01.2012 14:57 -6,2 C 67 % 1034,4 hPa 0,0 l/m 6,1 km/h (2 Bft) O 90 -11,3 C -9,2 C
31.01.2012 15:02 -6,3 C 67 % 1034,4 hPa 0,0 l/m 20,5 km/h (4 Bft) O 90 -11,4 C -13,3 C
31.01.2012 15:07 -6,4 C 67 % 1034,4 hPa 0,0 l/m 10,1 km/h (2 Bft) O 90 -11,5 C -11,0 C
31.01.2012 15:12 -6,4 C 67 % 1034,4 hPa 0,0 l/m 11,5 km/h (2 Bft) O 90 -11,5 C -11,4 C
31.01.2012 15:17 -6,2 C 67 % 1034,5 hPa 0,0 l/m 9,7 km/h (2 Bft) O 90 -11,3 C -10,6 C
31.01.2012 15:22 -6,2 C 67 % 1034,5 hPa 0,0 l/m 17,3 km/h (3 Bft) O 90 -11,3 C -12,6 C
31.01.2012 15:27 -6,2 C 67 % 1034,4 hPa 0,0 l/m 14,8 km/h (3 Bft) O 90 -11,3 C -12,0 C
31.01.2012 15:32 -6,2 C 67 % 1034,4 hPa 0,0 l/m 10,8 km/h (2 Bft) O 90 -11,3 C -11,0 C
31.01.2012 15:37 -6,2 C 67 % 1034,3 hPa 0,0 l/m 14,8 km/h (3 Bft) O 90 -11,3 C -12,0 C
31.01.2012 15:42 -6,3 C 67 % 1034,4 hPa 0,0 l/m 9,4 km/h (2 Bft) O 90 -11,4 C -10,6 C
31.01.2012 15:47 -6,2 C 67 % 1034,5 hPa 0,0 l/m 12,6 km/h (3 Bft) O 90 -11,3 C -11,5 C
31.01.2012 15:52 -6,4 C 67 % 1034,5 hPa 0,0 l/m 6,5 km/h (2 Bft) O 90 -11,5 C -9,6 C
31.01.2012 15:57 -6,4 C 67 % 1034,4 hPa 0,0 l/m 9,4 km/h (2 Bft) O 90 -11,5 C -10,8 C
31.01.2012 16:02 -6,4 C 67 % 1034,3 hPa 0,0 l/m 7,6 km/h (2 Bft) O 90 -11,5 C -10,1 C
31.01.2012 16:07 -6,4 C 67 % 1034,4 hPa 0,0 l/m 7,9 km/h (2 Bft) O 90 -11,5 C -10,2 C
31.01.2012 16:12 -6,4 C 68 % 1034,4 hPa 0,0 l/m 9,4 km/h (2 Bft) O 90 -11,3 C -10,8 C
31.01.2012 16:17 -6,5 C 68 % 1034,6 hPa 0,0 l/m 9,4 km/h (2 Bft) O 90 -11,4 C -10,9 C
31.01.2012 16:22 -6,5 C 68 % 1034,7 hPa 0,0 l/m 10,8 km/h (2 Bft) O 90 -11,4 C -11,3 C
31.01.2012 16:27 -6,5 C 68 % 1034,4 hPa 0,0 l/m 3,6 km/h (1 Bft) O 90 -11,4 C -6,5 C
31.01.2012 16:32 -6,6 C 68 % 1034,5 hPa 0,0 l/m 9,4 km/h (2 Bft) O 90 -11,5 C -11,0 C
31.01.2012 16:37 -6,6 C 68 % 1034,4 hPa 0,0 l/m 11,9 km/h (2 Bft) O 90 -11,5 C -11,8 C
31.01.2012 16:42 -6,6 C 68 % 1034,5 hPa 0,0 l/m 6,8 km/h (2 Bft) O 90 -11,5 C -10,0 C
31.01.2012 16:47 -6,7 C 68 % 1034,5 hPa 0,0 l/m 2,9 km/h (1 Bft) O 90 -11,6 C -6,7 C
31.01.2012 16:52 -6,7 C 69 % 1034,6 hPa 0,0 l/m 4,3 km/h (1 Bft) O 90 -11,4 C -6,7 C
31.01.2012 16:57 -6,7 C 69 % 1034,5 hPa 0,0 l/m 8,6 km/h (2 Bft) O 90 -11,4 C -10,8 C
31.01.2012 17:02 -6,8 C 69 % 1034,7 hPa 0,0 l/m 5,0 km/h (1 Bft) O 90 -11,5 C -9,3 C
31.01.2012 17:07 -6,9 C 69 % 1034,7 hPa 0,0 l/m 10,8 km/h (2 Bft) O 90 -11,6 C -11,8 C
31.01.2012 17:12 -6,9 C 69 % 1034,7 hPa 0,0 l/m 13,0 km/h (3 Bft) O 90 -11,6 C -12,4 C
31.01.2012 17:17 -6,9 C 69 % 1034,6 hPa 0,0 l/m 9,4 km/h (2 Bft) O 90 -11,6 C -11,4 C
31.01.2012 17:22 -6,9 C 69 % 1034,6 hPa 0,0 l/m 6,5 km/h (2 Bft) O 90 -11,6 C -10,2 C
31.01.2012 17:27 -7,1 C 69 % 1034,6 hPa 0,0 l/m 10,8 km/h (2 Bft) O 90 -11,8 C -12,1 C
31.01.2012 17:32 -7,1 C 69 % 1034,7 hPa 0,0 l/m 4,7 km/h (1 Bft) O 90 -11,8 C -9,5 C
31.01.2012 17:37 -7,1 C 69 % 1034,7 hPa 0,0 l/m 12,6 km/h (3 Bft) O 90 -11,8 C -12,6 C
31.01.2012 17:42 -7,1 C 70 % 1034,7 hPa 0,0 l/m 11,2 km/h (2 Bft) O 90 -11,6 C -12,2 C
31.01.2012 17:47 -7,2 C 70 % 1034,8 hPa 0,0 l/m 5,4 km/h (1 Bft) O 90 -11,7 C -10,0 C
31.01.2012 17:52 -7,2 C 70 % 1034,8 hPa 0,0 l/m 3,6 km/h (1 Bft) O 90 -11,7 C -7,2 C
31.01.2012 17:57 -7,2 C 70 % 1034,8 hPa 0,0 l/m 5,4 km/h (1 Bft) O 90 -11,7 C -10,0 C
31.01.2012 18:02 -7,3 C 70 % 1034,9 hPa 0,0 l/m 2,5 km/h (1 Bft) O 90 -11,8 C -7,3 C
31.01.2012 18:07 -7,3 C 70 % 1034,9 hPa 0,0 l/m 4,0 km/h (1 Bft) O 90 -11,8 C -7,3 C
31.01.2012 18:12 -7,4 C 70 % 1035,0 hPa 0,0 l/m 4,0 km/h (1 Bft) O 90 -11,9 C -7,4 C
31.01.2012 18:17 -7,4 C 70 % 1035,1 hPa 0,0 l/m 5,0 km/h (1 Bft) O 90 -11,9 C -10,0 C
31.01.2012 18:22 -7,4 C 71 % 1035,0 hPa 0,0 l/m 9,0 km/h (2 Bft) O 90 -11,7 C -11,8 C
31.01.2012 18:27 -7,4 C 71 % 1035,0 hPa 0,0 l/m 5,4 km/h (1 Bft) O 90 -11,7 C -10,2 C
31.01.2012 18:32 -7,4 C 71 % 1035,1 hPa 0,0 l/m 2,5 km/h (1 Bft) O 90 -11,7 C -7,4 C
31.01.2012 18:37 -7,4 C 71 % 1035,1 hPa 0,0 l/m 2,2 km/h (1 Bft) O 90 -11,7 C -7,4 C
31.01.2012 18:42 -7,4 C 71 % 1035,3 hPa 0,0 l/m 6,5 km/h (2 Bft) O 90 -11,7 C -10,8 C
31.01.2012 18:47 -7,4 C 71 % 1035,4 hPa 0,0 l/m 5,0 km/h (1 Bft) O 90 -11,7 C -10,0 C
31.01.2012 18:52 -7,5 C 71 % 1035,3 hPa 0,0 l/m 3,2 km/h (1 Bft) O 90 -11,8 C -7,5 C
31.01.2012 18:57 -7,5 C 72 % 1035,2 hPa 0,0 l/m 4,7 km/h (1 Bft) O 90 -11,7 C -9,9 C
31.01.2012 19:02 -7,5 C 72 % 1035,4 hPa 0,0 l/m 7,6 km/h (2 Bft) O 90 -11,7 C -11,4 C
31.01.2012 19:07 -7,5 C 72 % 1035,4 hPa 0,0 l/m 9,4 km/h (2 Bft) O 90 -11,7 C -12,1 C
31.01.2012 19:12 -7,5 C 72 % 1035,4 hPa 0,0 l/m 3,6 km/h (1 Bft) O 90 -11,7 C -7,5 C
31.01.2012 19:17 -7,5 C 72 % 1035,3 hPa 0,0 l/m 7,2 km/h (2 Bft) O 90 -11,7 C -11,2 C
31.01.2012 19:22 -7,5 C 72 % 1035,4 hPa 0,0 l/m 4,7 km/h (1 Bft) O 90 -11,7 C -9,9 C
31.01.2012 19:27 -7,4 C 72 % 1035,3 hPa 0,0 l/m 5,8 km/h (2 Bft) O 90 -11,6 C -10,4 C
31.01.2012 19:32 -7,4 C 72 % 1035,5 hPa 0,0 l/m 10,4 km/h (2 Bft) O 90 -11,6 C -12,3 C
31.01.2012 19:37 -7,3 C 72 % 1035,5 hPa 0,0 l/m 11,2 km/h (2 Bft) O 90 -11,5 C -12,4 C
31.01.2012 19:42 -7,2 C 71 % 1035,6 hPa 0,0 l/m 11,2 km/h (2 Bft) O 90 -11,5 C -12,3 C
31.01.2012 19:47 -7,2 C 71 % 1035,5 hPa 0,0 l/m 8,3 km/h (2 Bft) O 90 -11,5 C -11,3 C
31.01.2012 19:52 -7,1 C 71 % 1035,5 hPa 0,0 l/m 7,9 km/h (2 Bft) O 90 -11,4 C -11,0 C
31.01.2012 19:57 -7,1 C 71 % 1035,6 hPa 0,0 l/m 10,1 km/h (2 Bft) O 90 -11,4 C -11,8 C
31.01.2012 20:02 -7,0 C 71 % 1035,6 hPa 0,0 l/m 14,0 km/h (3 Bft) O 90 -11,3 C -12,8 C
31.01.2012 20:07 -6,9 C 71 % 1035,7 hPa 0,0 l/m 11,2 km/h (2 Bft) O 90 -11,2 C -11,9 C
31.01.2012 20:12 -6,9 C 70 % 1035,8 hPa 0,0 l/m 16,9 km/h (3 Bft) O 90 -11,4 C -13,3 C
31.01.2012 20:17 -6,9 C 70 % 1035,7 hPa 0,0 l/m 10,1 km/h (2 Bft) O 90 -11,4 C -11,6 C
31.01.2012 20:22 -6,9 C 70 % 1035,8 hPa 0,0 l/m 6,5 km/h (2 Bft) O 90 -11,4 C -10,2 C
31.01.2012 20:27 -6,9 C 70 % 1035,9 hPa 0,0 l/m 4,7 km/h (1 Bft) O 90 -11,4 C -9,2 C
31.01.2012 20:32 -6,9 C 69 % 1036,0 hPa 0,0 l/m 4,0 km/h (1 Bft) O 90 -11,6 C -6,9 C
31.01.2012 20:37 -6,9 C 70 % 1036,0 hPa 0,0 l/m 6,5 km/h (2 Bft) O 90 -11,4 C -10,2 C
31.01.2012 20:42 -7,0 C 69 % 1035,9 hPa 0,0 l/m 8,3 km/h (2 Bft) O 90 -11,7 C -11,1 C
31.01.2012 20:47 -7,0 C 69 % 1036,1 hPa 0,0 l/m 11,9 km/h (2 Bft) O 90 -11,7 C -12,3 C
31.01.2012 20:52 -7,1 C 69 % 1036,1 hPa 0,0 l/m 7,9 km/h (2 Bft) O 90 -11,8 C -11,0 C
31.01.2012 20:57 -7,1 C 69 % 1036,1 hPa 0,0 l/m 4,3 km/h (1 Bft) O 90 -11,8 C -7,1 C
31.01.2012 21:02 -7,1 C 69 % 1036,1 hPa 0,0 l/m 6,5 km/h (2 Bft) O 90 -11,8 C -10,4 C
31.01.2012 21:07 -7,1 C 69 % 1036,2 hPa 0,0 l/m 9,4 km/h (2 Bft) O 90 -11,8 C -11,6 C
31.01.2012 21:12 -7,1 C 69 % 1036,3 hPa 0,0 l/m 7,2 km/h (2 Bft) O 90 -11,8 C -10,7 C
31.01.2012 21:17 -7,1 C 69 % 1036,3 hPa 0,0 l/m 6,8 km/h (2 Bft) O 90 -11,8 C -10,6 C
31.01.2012 21:22 -7,1 C 69 % 1036,5 hPa 0,0 l/m 14,4 km/h (3 Bft) O 90 -11,8 C -13,0 C
31.01.2012 21:27 -7,1 C 69 % 1036,5 hPa 0,0 l/m 7,2 km/h (2 Bft) O 90 -11,8 C -10,7 C
31.01.2012 21:32 -7,1 C 69 % 1036,5 hPa 0,0 l/m 4,0 km/h (1 Bft) O 90 -11,8 C -7,1 C
31.01.2012 21:37 -7,1 C 69 % 1036,5 hPa 0,0 l/m 9,7 km/h (2 Bft) O 90 -11,8 C -11,7 C
31.01.2012 21:42 -7,1 C 68 % 1036,2 hPa 0,0 l/m 13,0 km/h (3 Bft) O 90 -12,0 C -12,7 C
31.01.2012 21:47 -7,1 C 68 % 1036,4 hPa 0,0 l/m 15,1 km/h (3 Bft) O 90 -12,0 C -13,2 C
31.01.2012 21:52 -7,1 C 67 % 1036,4 hPa 0,0 l/m 19,1 km/h (3 Bft) O 90 -12,2 C -14,0 C
31.01.2012 21:57 -7,1 C 67 % 1036,4 hPa 0,0 l/m 8,3 km/h (2 Bft) O 90 -12,2 C -11,2 C
31.01.2012 22:02 -7,1 C 67 % 1036,6 hPa 0,0 l/m 5,8 km/h (2 Bft) O 90 -12,2 C -10,1 C
31.01.2012 22:07 -7,1 C 67 % 1036,5 hPa 0,0 l/m 15,8 km/h (3 Bft) O 90 -12,2 C -13,4 C
31.01.2012 22:12 -7,2 C 67 % 1036,5 hPa 0,0 l/m 7,6 km/h (2 Bft) O 90 -12,3 C -11,0 C
31.01.2012 22:17 -7,2 C 67 % 1036,5 hPa 0,0 l/m 16,6 km/h (3 Bft) O 90 -12,3 C -13,7 C
31.01.2012 22:22 -7,3 C 67 % 1036,5 hPa 0,0 l/m 1,8 km/h (1 Bft) O 90 -12,4 C -7,3 C
31.01.2012 22:27 -7,4 C 68 % 1036,5 hPa 0,0 l/m 5,8 km/h (2 Bft) O 90 -12,3 C -10,4 C
31.01.2012 22:32 -7,5 C 68 % 1036,5 hPa 0,0 l/m 2,5 km/h (1 Bft) O 90 -12,4 C -7,5 C
31.01.2012 22:37 -7,6 C 68 % 1036,6 hPa 0,0 l/m 5,0 km/h (1 Bft) O 90 -12,5 C -10,2 C
31.01.2012 22:42 -7,6 C 69 % 1036,6 hPa 0,0 l/m 16,9 km/h (3 Bft) O 90 -12,3 C -14,2 C
31.01.2012 22:47 -7,6 C 69 % 1036,5 hPa 0,0 l/m 5,8 km/h (2 Bft) O 90 -12,3 C -10,7 C
31.01.2012 22:52 -7,6 C 69 % 1036,5 hPa 0,0 l/m 6,1 km/h (2 Bft) O 90 -12,3 C -10,8 C
31.01.2012 22:57 -7,7 C 69 % 1036,5 hPa 0,0 l/m 4,7 km/h (1 Bft) O 90 -12,4 C -10,1 C
31.01.2012 23:02 -7,7 C 69 % 1036,5 hPa 0,0 l/m 5,8 km/h (2 Bft) O 90 -12,4 C -10,8 C
31.01.2012 23:07 -7,7 C 69 % 1036,6 hPa 0,0 l/m 14,8 km/h (3 Bft) O 90 -12,4 C -13,9 C
31.01.2012 23:12 -7,7 C 69 % 1036,6 hPa 0,0 l/m 9,4 km/h (2 Bft) O 90 -12,4 C -12,3 C
31.01.2012 23:17 -7,8 C 69 % 1036,6 hPa 0,0 l/m 4,3 km/h (1 Bft) O 90 -12,5 C -7,8 C
31.01.2012 23:22 -7,8 C 69 % 1036,6 hPa 0,0 l/m 8,6 km/h (2 Bft) O 90 -12,5 C -12,1 C
31.01.2012 23:27 -7,8 C 68 % 1036,6 hPa 0,0 l/m 6,1 km/h (2 Bft) O 90 -12,6 C -11,0 C
31.01.2012 23:32 -7,9 C 68 % 1036,6 hPa 0,0 l/m 13,3 km/h (3 Bft) O 90 -12,7 C -13,7 C
31.01.2012 23:37 -7,8 C 68 % 1036,6 hPa 0,0 l/m 6,8 km/h (2 Bft) O 90 -12,6 C -11,4 C
31.01.2012 23:42 -7,8 C 68 % 1036,5 hPa 0,0 l/m 10,1 km/h (2 Bft) O 90 -12,6 C -12,7 C
31.01.2012 23:47 -7,8 C 68 % 1036,6 hPa 0,0 l/m 10,8 km/h (2 Bft) O 90 -12,6 C -12,9 C
31.01.2012 23:52 -7,8 C 68 % 1036,6 hPa 0,0 l/m 14,8 km/h (3 Bft) O 90 -12,6 C -14,0 C
31.01.2012 23:57 -7,8 C 68 % 1036,6 hPa 0,0 l/m 14,4 km/h (3 Bft) O 90 -12,6 C -13,9 C
_ Min-Zeit 08:12 14:17 05:02 - 22:22 - - 08:12 09:32
Minimum _ -9,9 C 67 % 1033,6 hPa - 1,8 km/h (1 Bft) - - -13,0 C -18,5 C
_ Max-Zeit 14:57 07:42 22:02 00:02 10:17 - - 00:02 16:27
Maximum _ -6,2 C 79 % 1036,6 hPa 0,0 l/m 26,6 km/h
O (4 Bft)
- - -11,1 C -6,5 C
Durchschnitt _ -7,9 C 73 % 1034,7 hPa #0,0 l/m 11,6 km/h (2 Bft) O - -11,9 C -12,9 C
(c) by David Heller